createdAt,value
2023-04-23T00:01:42.753Z,7.45
2023-04-23T00:04:51.749Z,8.43
2023-04-23T00:07:57.324Z,7.60
2023-04-23T00:11:00.910Z,8.40
2023-04-23T00:14:04.132Z,7.63
2023-04-23T00:17:06.986Z,7.22
2023-04-23T00:20:10.518Z,8.03
2023-04-23T00:23:14.713Z,8.13
2023-04-23T00:26:18.597Z,8.40
2023-04-23T00:29:21.589Z,8.90
2023-04-23T00:32:24.548Z,7.68
2023-04-23T00:35:27.295Z,8.87
2023-04-23T00:38:31.497Z,8.57
2023-04-23T00:41:35.548Z,8.35
2023-04-23T00:44:38.548Z,8.27
2023-04-23T00:47:42.103Z,8.25
2023-04-23T00:50:44.860Z,8.40
2023-04-23T00:53:49.388Z,7.67
2023-04-23T00:56:52.298Z,8.40
2023-04-23T00:59:56.863Z,8.13
2023-04-23T01:03:01.549Z,8.50
2023-04-23T01:06:04.810Z,8.57
2023-04-23T01:09:10.021Z,7.93
2023-04-23T01:12:13.560Z,8.25
2023-04-23T01:15:16.652Z,8.70
2023-04-23T01:18:20.178Z,7.80
2023-04-23T01:21:23.574Z,8.13
2023-04-23T01:24:28.112Z,7.40
2023-04-23T01:27:31.283Z,7.82
2023-04-23T01:30:34.710Z,8.30
2023-04-23T01:33:37.832Z,8.60
2023-04-23T01:36:42.333Z,9.07
2023-04-23T01:39:46.617Z,8.80
2023-04-23T01:42:49.756Z,8.68
2023-04-23T01:45:52.739Z,8.63
2023-04-23T01:48:55.873Z,8.52
2023-04-23T01:51:58.638Z,8.30
2023-04-23T01:55:03.121Z,7.90
2023-04-23T01:58:06.230Z,8.10
2023-04-23T02:01:08.945Z,8.05
2023-04-23T02:04:12.979Z,8.15
2023-04-23T02:07:15.764Z,8.30
2023-04-23T02:10:20.710Z,8.73
2023-04-23T02:13:23.613Z,8.60
2023-04-23T02:16:26.703Z,8.32
2023-04-23T02:19:31.810Z,7.25
2023-04-23T02:22:34.729Z,7.43
2023-04-23T02:25:39.715Z,7.90
2023-04-23T02:28:42.439Z,7.47
2023-04-23T02:31:45.344Z,7.88
2023-04-23T02:34:48.245Z,7.35
2023-04-23T02:37:50.994Z,8.03
2023-04-23T02:40:55.191Z,7.80
2023-04-23T02:43:57.888Z,8.18
2023-04-23T02:47:00.818Z,8.05
2023-04-23T02:50:05.998Z,7.57
2023-04-23T02:53:08.864Z,8.13
2023-04-23T02:56:13.079Z,7.82
2023-04-23T02:59:15.948Z,7.32
2023-04-23T03:02:18.773Z,7.90
2023-04-23T03:05:21.719Z,7.50
2023-04-23T03:08:24.468Z,8.05
2023-04-23T03:11:28.664Z,7.43
2023-04-23T03:14:31.502Z,7.57
2023-04-23T03:17:34.417Z,7.50
2023-04-23T03:20:37.644Z,7.55
2023-04-23T03:23:40.389Z,7.40
2023-04-23T03:26:44.575Z,7.22
2023-04-23T03:29:48.076Z,7.50
2023-04-23T03:32:51.719Z,7.40
2023-04-23T03:35:54.569Z,7.60
2023-04-23T03:38:57.331Z,7.65
2023-04-23T03:42:02.086Z,7.68
2023-04-23T03:45:05.672Z,7.70
2023-04-23T03:48:08.637Z,7.10
2023-04-23T03:51:11.458Z,7.30
2023-04-23T03:54:14.159Z,6.60
2023-04-23T03:57:18.365Z,7.10
2023-04-23T04:00:21.659Z,7.93
2023-04-23T04:03:24.623Z,7.07
2023-04-23T04:06:27.716Z,7.00
2023-04-23T04:09:30.650Z,7.53
2023-04-23T04:12:34.885Z,7.13
2023-04-23T04:15:37.575Z,7.70
2023-04-23T04:18:40.568Z,7.20
2023-04-23T04:21:43.394Z,6.90
2023-04-23T04:24:47.452Z,7.10
2023-04-23T04:27:52.009Z,7.43
2023-04-23T04:30:57.511Z,7.25
2023-04-23T04:34:00.861Z,7.17
2023-04-23T04:37:03.668Z,7.18
2023-04-23T04:40:08.306Z,7.70
2023-04-23T04:43:12.875Z,7.10
2023-04-23T04:46:16.154Z,7.97
2023-04-23T04:49:19.720Z,7.83
2023-04-23T04:52:22.630Z,7.32
2023-04-23T04:55:25.410Z,7.30
2023-04-23T04:58:29.666Z,7.78
2023-04-23T05:01:33.296Z,7.93
2023-04-23T05:04:36.192Z,7.17
2023-04-23T05:07:39.019Z,7.25
2023-04-23T05:10:41.762Z,7.65
2023-04-23T05:13:46.477Z,7.70
2023-04-23T05:16:49.228Z,7.13
2023-04-23T05:19:52.154Z,7.17
2023-04-23T05:22:55.044Z,7.22
2023-04-23T05:25:58.667Z,7.10
2023-04-23T05:29:02.875Z,7.07
2023-04-23T05:32:05.718Z,6.65
2023-04-23T05:35:09.341Z,6.37
2023-04-23T05:38:12.190Z,6.53
2023-04-23T05:41:14.925Z,7.20
2023-04-23T05:44:19.132Z,6.80
2023-04-23T05:47:22.312Z,7.50
2023-04-23T05:50:25.301Z,7.17
2023-04-23T05:53:29.205Z,6.30
2023-04-23T05:56:31.926Z,6.13
2023-04-23T05:59:36.294Z,6.25
2023-04-23T06:02:39.319Z,6.15
2023-04-23T06:05:43.321Z,6.40
2023-04-23T06:08:46.191Z,5.85
2023-04-23T06:11:50.485Z,6.28
2023-04-23T06:14:54.872Z,5.50
2023-04-23T06:17:57.816Z,6.40
2023-04-23T06:21:04.276Z,6.40
2023-04-23T06:24:07.495Z,6.15
2023-04-23T06:27:10.181Z,6.45
2023-04-23T06:30:15.093Z,6.53
2023-04-23T06:33:17.976Z,6.22
2023-04-23T06:36:21.112Z,5.17
2023-04-23T06:39:23.956Z,5.43
2023-04-23T06:42:26.757Z,5.03
2023-04-23T06:45:32.021Z,5.30
2023-04-23T06:48:34.797Z,5.55
2023-04-23T06:51:37.705Z,5.53
2023-04-23T06:54:40.955Z,5.60
2023-04-23T06:57:43.772Z,5.40
2023-04-23T07:00:47.975Z,5.10
2023-04-23T07:03:52.346Z,5.22
2023-04-23T07:06:55.457Z,5.50
2023-04-23T07:09:58.372Z,4.93
2023-04-23T07:13:01.557Z,5.30
2023-04-23T07:16:06.003Z,4.75
2023-04-23T07:19:08.707Z,5.22
2023-04-23T07:22:11.426Z,5.13
2023-04-23T07:25:14.260Z,5.13
2023-04-23T07:28:17.027Z,5.43
2023-04-23T07:31:21.295Z,5.28
2023-04-23T07:34:24.024Z,5.22
2023-04-23T07:37:26.972Z,5.17
2023-04-23T07:40:29.830Z,5.28
2023-04-23T07:43:32.540Z,4.43
2023-04-23T07:46:36.887Z,5.25
2023-04-23T07:49:39.976Z,4.78
2023-04-23T07:52:43.041Z,5.23
2023-04-23T07:55:45.905Z,4.82
2023-04-23T07:58:48.609Z,5.65
2023-04-23T08:01:52.982Z,5.18
2023-04-23T08:04:55.984Z,5.53
2023-04-23T08:07:59.123Z,4.83
2023-04-23T08:11:02.036Z,4.95
2023-04-23T08:14:04.782Z,5.03
2023-04-23T08:17:09.069Z,5.47
2023-04-23T08:20:12.337Z,6.13
2023-04-23T08:23:15.190Z,5.13
2023-04-23T08:26:18.161Z,5.03
2023-04-23T08:29:20.873Z,4.47
2023-04-23T08:32:25.085Z,5.45
2023-04-23T08:35:27.822Z,5.13
2023-04-23T08:38:30.704Z,5.50
2023-04-23T08:41:39.548Z,5.40
2023-04-23T08:44:43.880Z,7.20
2023-04-23T08:47:48.156Z,6.20
2023-04-23T08:50:50.928Z,6.10
2023-04-23T08:53:59.426Z,5.63
2023-04-23T08:57:02.696Z,6.55
2023-04-23T09:00:08.101Z,6.63
2023-04-23T09:03:13.085Z,6.82
2023-04-23T09:06:15.917Z,6.13
2023-04-23T09:09:19.617Z,5.57
2023-04-23T09:12:22.569Z,5.47
2023-04-23T09:15:25.281Z,3.88
2023-04-23T09:18:29.775Z,4.00
2023-04-23T09:21:33.284Z,3.33
2023-04-23T09:24:36.293Z,3.70
2023-04-23T09:27:39.456Z,3.10
2023-04-23T09:30:45.173Z,2.97
2023-04-23T09:33:53.602Z,2.92
2023-04-23T09:36:56.379Z,2.95
2023-04-23T09:40:04.342Z,2.33
2023-04-23T09:43:08.243Z,2.47
2023-04-23T09:46:11.750Z,3.22
2023-04-23T09:49:16.629Z,3.13
2023-04-23T09:52:20.469Z,2.95
2023-04-23T09:55:29.717Z,2.80
2023-04-23T09:58:32.605Z,3.30
2023-04-23T10:01:35.350Z,3.13
2023-04-23T10:04:40.900Z,2.70
2023-04-23T10:07:45.223Z,2.90
2023-04-23T10:13:56.096Z,2.47
2023-04-23T10:17:00.399Z,2.20
2023-04-23T10:20:06.182Z,2.28
2023-04-23T10:23:10.466Z,3.28
2023-04-23T10:26:16.935Z,3.57
2023-04-23T10:29:22.993Z,3.05
2023-04-23T10:32:26.889Z,4.35
2023-04-23T10:35:32.312Z,3.75
2023-04-23T10:38:39.307Z,5.07
2023-04-23T10:41:49.484Z,5.10
2023-04-23T10:45:02.672Z,4.60
2023-04-23T10:48:10.920Z,4.63
2023-04-23T10:54:21.945Z,4.70
2023-04-23T10:57:24.952Z,5.03
2023-04-23T11:00:28.275Z,5.30
2023-04-23T11:03:43.059Z,4.97
2023-04-23T11:06:56.675Z,5.25
2023-04-23T11:10:00.808Z,6.15
2023-04-23T11:13:23.866Z,5.87
2023-04-23T11:16:26.859Z,5.45
2023-04-23T11:19:30.190Z,5.82
2023-04-23T11:22:37.820Z,5.30
2023-04-23T11:25:44.716Z,5.88
2023-04-23T11:28:50.208Z,6.37
2023-04-23T11:35:00.621Z,6.20
2023-04-23T11:38:09.562Z,5.40
2023-04-23T11:41:12.450Z,5.80
2023-04-23T11:44:15.821Z,5.43
2023-04-23T11:47:18.778Z,6.63
2023-04-23T11:50:23.318Z,6.68
2023-04-23T11:53:28.125Z,5.30
2023-04-23T11:56:31.708Z,6.13
2023-04-23T11:59:34.531Z,5.23
2023-04-23T12:02:37.289Z,5.20
2023-04-23T12:05:45.404Z,5.22
2023-04-23T12:08:49.730Z,4.72
2023-04-23T12:11:52.843Z,4.60
2023-04-23T12:15:05.115Z,4.50
2023-04-23T12:18:11.752Z,4.50
2023-04-23T12:21:15.364Z,4.93
2023-04-23T12:24:19.414Z,4.50
2023-04-23T12:27:23.255Z,4.32
2023-04-23T12:30:29.862Z,5.75
2023-04-23T12:33:32.862Z,4.82
2023-04-23T12:36:37.357Z,3.65
2023-04-23T12:39:41.658Z,3.80
2023-04-23T12:42:44.716Z,3.40
2023-04-23T12:45:47.677Z,3.33
2023-04-23T12:48:50.392Z,4.00
2023-04-23T12:51:53.352Z,3.28
2023-04-23T12:54:58.982Z,3.00
2023-04-23T12:58:01.791Z,2.72
2023-04-23T13:01:04.670Z,2.80
2023-04-23T13:04:07.819Z,2.17
2023-04-23T13:07:10.705Z,2.53
2023-04-23T13:10:14.818Z,2.50
2023-04-23T13:13:17.692Z,2.30
2023-04-23T13:16:20.659Z,2.13
2023-04-23T13:19:23.326Z,1.73
2023-04-23T13:22:29.161Z,1.77
2023-04-23T13:25:33.304Z,1.90
2023-04-23T13:28:36.668Z,1.75
2023-04-23T13:31:39.494Z,2.20
2023-04-23T13:34:42.256Z,1.83
2023-04-23T13:37:45.070Z,2.15
2023-04-23T13:40:49.179Z,2.43
2023-04-23T13:43:52.788Z,2.40
2023-04-23T13:46:57.226Z,2.53
2023-04-23T13:50:00.291Z,2.00
2023-04-23T13:53:03.097Z,1.50
2023-04-23T13:56:07.439Z,1.57
2023-04-23T13:59:19.502Z,1.40
2023-04-23T14:02:24.059Z,1.58
2023-04-23T14:05:26.919Z,1.38
2023-04-23T14:08:30.013Z,1.38
2023-04-23T14:11:34.428Z,1.30
2023-04-23T14:14:37.346Z,1.30
2023-04-23T14:17:43.026Z,1.60
2023-04-23T14:20:45.796Z,1.45
2023-04-23T14:23:57.267Z,1.42
2023-04-23T14:30:06.318Z,1.45
2023-04-23T14:33:09.297Z,1.60
2023-04-23T14:36:12.040Z,1.50
2023-04-23T14:39:16.335Z,1.40
2023-04-23T14:42:20.403Z,1.20
2023-04-23T14:45:23.217Z,1.40
2023-04-23T14:48:26.027Z,1.20
2023-04-23T14:51:28.780Z,1.17
2023-04-23T14:54:31.636Z,1.17
2023-04-23T14:57:35.691Z,1.00
2023-04-23T15:00:38.583Z,1.25
2023-04-23T15:03:41.857Z,1.35
2023-04-23T15:06:44.597Z,1.15
2023-04-23T15:09:47.474Z,1.13
2023-04-23T15:12:56.806Z,1.00
2023-04-23T15:16:05.712Z,1.00
2023-04-23T15:19:10.126Z,1.00
2023-04-23T15:22:12.963Z,0.90
2023-04-23T15:25:16.550Z,1.08
2023-04-23T15:28:23.565Z,1.00
2023-04-23T15:31:26.493Z,0.93
2023-04-23T15:34:29.346Z,0.98
2023-04-23T15:37:32.055Z,0.90
2023-04-23T15:40:42.115Z,1.10
2023-04-23T15:43:47.284Z,1.10
2023-04-23T15:46:50.155Z,1.10
2023-04-23T15:49:52.834Z,1.10
2023-04-23T15:52:57.622Z,1.00
2023-04-23T15:56:00.504Z,1.10
2023-04-23T15:59:04.605Z,1.00
2023-04-23T16:02:07.561Z,1.00
2023-04-23T16:05:11.584Z,1.07
2023-04-23T16:08:16.342Z,1.30
2023-04-23T16:11:19.404Z,1.40
2023-04-23T16:14:23.494Z,1.60
2023-04-23T16:17:28.082Z,2.20
2023-04-23T16:20:30.950Z,1.93
2023-04-23T16:23:34.391Z,1.50
2023-04-23T16:26:37.554Z,1.38
2023-04-23T16:29:41.925Z,1.10
2023-04-23T16:32:45.044Z,1.40
2023-04-23T16:35:47.869Z,1.50
2023-04-23T16:38:51.659Z,1.40
2023-04-23T16:41:55.850Z,1.27
2023-04-23T16:44:59.900Z,1.30
2023-04-23T16:48:02.736Z,1.27
2023-04-23T16:51:05.700Z,0.97
2023-04-23T16:54:08.603Z,1.15
2023-04-23T16:57:12.772Z,1.02
2023-04-23T17:00:17.908Z,1.20
2023-04-23T17:03:21.050Z,1.17
2023-04-23T17:06:27.665Z,1.20
2023-04-23T17:09:31.756Z,1.00
2023-04-23T17:12:34.591Z,1.02
2023-04-23T17:15:39.129Z,1.20
2023-04-23T17:18:41.969Z,1.20
2023-04-23T17:21:45.153Z,1.23
2023-04-23T17:24:48.061Z,1.08
2023-04-23T17:27:50.879Z,1.30
2023-04-23T17:30:55.869Z,1.10
2023-04-23T17:33:58.862Z,1.30
2023-04-23T17:37:01.560Z,1.40
2023-04-23T17:40:05.966Z,1.58
2023-04-23T17:43:08.901Z,1.58
2023-04-23T17:46:13.070Z,1.50
2023-04-23T17:49:16.025Z,1.60
2023-04-23T17:52:18.735Z,1.53
2023-04-23T17:55:22.082Z,1.50
2023-04-23T17:58:24.966Z,1.80
2023-04-23T18:01:29.161Z,1.27
2023-04-23T18:04:34.985Z,1.23
2023-04-23T18:07:37.937Z,1.27
2023-04-23T18:10:40.904Z,1.15
2023-04-23T18:13:44.016Z,1.13
2023-04-23T18:16:48.131Z,1.23
2023-04-23T18:19:51.399Z,1.30
2023-04-23T18:22:54.749Z,1.10
2023-04-23T18:25:58.619Z,1.13
2023-04-23T18:29:01.479Z,1.50
2023-04-23T18:32:06.262Z,1.40
2023-04-23T18:35:10.074Z,1.30
2023-04-23T18:38:25.109Z,1.37
2023-04-23T18:41:28.998Z,1.60
2023-04-23T18:44:32.474Z,1.40
2023-04-23T18:47:39.554Z,1.35
2023-04-23T18:50:45.238Z,1.50
2023-04-23T18:53:48.851Z,1.00
2023-04-23T18:56:52.872Z,1.20
2023-04-23T18:59:55.727Z,1.20
2023-04-23T19:03:02.795Z,1.25
2023-04-23T19:06:09.472Z,1.50
2023-04-23T19:09:12.187Z,1.40
2023-04-23T19:12:15.030Z,1.10
2023-04-23T19:15:18.131Z,1.42
2023-04-23T19:18:23.195Z,1.50
2023-04-23T19:21:26.155Z,1.70
2023-04-23T19:24:30.556Z,1.60
2023-04-23T19:27:33.390Z,1.45
2023-04-23T19:30:36.305Z,1.60
2023-04-23T19:33:42.735Z,1.50
2023-04-23T19:36:47.799Z,1.80
2023-04-23T19:39:50.593Z,1.50
2023-04-23T19:42:53.442Z,1.70
2023-04-23T19:45:56.358Z,1.70
2023-04-23T19:49:00.544Z,1.52
2023-04-23T19:52:04.957Z,1.80
2023-04-23T19:55:08.754Z,1.90
2023-04-23T19:58:11.877Z,1.70
2023-04-23T20:01:14.796Z,2.10
2023-04-23T20:04:19.025Z,1.80
2023-04-23T20:07:21.965Z,2.10
2023-04-23T20:10:29.104Z,2.10
2023-04-23T20:13:33.067Z,1.95
2023-04-23T20:16:36.087Z,3.20
2023-04-23T20:19:41.040Z,3.08
2023-04-23T20:22:44.019Z,2.73
2023-04-23T20:25:48.005Z,2.60
2023-04-23T20:28:50.867Z,3.10
2023-04-23T20:31:53.601Z,3.30
2023-04-23T20:34:58.966Z,3.10
2023-04-23T20:38:02.053Z,3.30
2023-04-23T20:41:05.192Z,3.90
2023-04-23T20:44:09.096Z,3.53
2023-04-23T20:47:11.857Z,4.07
2023-04-23T20:50:17.536Z,3.30
2023-04-23T20:53:20.469Z,4.00
2023-04-23T20:56:23.171Z,3.63
2023-04-23T20:59:26.000Z,4.53
2023-04-23T21:02:28.837Z,5.05
2023-04-23T21:05:33.136Z,4.60
2023-04-23T21:08:37.920Z,4.17
2023-04-23T21:11:40.962Z,3.30
2023-04-23T21:14:43.904Z,3.83
2023-04-23T21:17:46.606Z,3.85
2023-04-23T21:20:50.804Z,4.80
2023-04-23T21:23:53.511Z,4.53
2023-04-23T21:26:56.369Z,5.00
2023-04-23T21:30:05.796Z,4.20
2023-04-23T21:33:08.721Z,4.90
2023-04-23T21:36:12.892Z,4.78
2023-04-23T21:39:16.268Z,5.37
2023-04-23T21:42:19.209Z,4.50
2023-04-23T21:45:22.026Z,4.40
2023-04-23T21:48:24.892Z,4.40
2023-04-23T21:51:30.006Z,4.47
2023-04-23T21:54:33.109Z,4.27
2023-04-23T21:57:36.421Z,4.57
2023-04-23T22:00:39.647Z,5.05
2023-04-23T22:03:46.938Z,4.43
2023-04-23T22:06:51.313Z,4.60
2023-04-23T22:09:54.285Z,4.30
2023-04-23T22:12:57.223Z,4.20
2023-04-23T22:16:00.302Z,3.93
2023-04-23T22:19:03.905Z,4.70
2023-04-23T22:22:08.262Z,4.13
2023-04-23T22:25:12.938Z,4.18
2023-04-23T22:28:15.666Z,4.43
2023-04-23T22:31:18.614Z,4.33
2023-04-23T22:34:21.342Z,3.88
2023-04-23T22:37:25.559Z,3.83
2023-04-23T22:40:28.286Z,4.60
2023-04-23T22:43:31.120Z,4.27
2023-04-23T22:46:34.028Z,4.03
2023-04-23T22:49:37.216Z,4.40
2023-04-23T22:52:41.526Z,6.10
2023-04-23T22:55:44.210Z,5.72
2023-04-23T22:58:47.014Z,6.10
2023-04-23T23:01:50.097Z,5.50
2023-04-23T23:04:52.977Z,5.32
2023-04-23T23:07:56.993Z,5.40
2023-04-23T23:10:59.943Z,5.10
2023-04-23T23:14:03.021Z,4.63
2023-04-23T23:17:06.834Z,4.60
2023-04-23T23:20:11.689Z,4.82
2023-04-23T23:23:15.926Z,4.63
2023-04-23T23:26:19.925Z,4.25
2023-04-23T23:29:22.851Z,3.83
2023-04-23T23:32:25.604Z,3.77
2023-04-23T23:35:28.473Z,4.15
2023-04-23T23:38:32.653Z,4.10
2023-04-23T23:41:35.380Z,3.70
2023-04-23T23:44:38.203Z,4.43
2023-04-23T23:47:40.987Z,4.20
2023-04-23T23:50:43.834Z,3.80
2023-04-23T23:53:48.032Z,4.00
2023-04-23T23:56:50.722Z,3.83
2023-04-23T23:59:53.573Z,4.03
